HCMF

Bosaso Airport

Bosaso, Somalia
METAR HCMF 251300Z 33005KT CAVOK 34/25 Q0999
Observed Flight Rules
May-25 @ 13:00 UTC (15 hours ago) Visual Flight Rules
Wind Visibility Clouds
330° at 5 knots 10,000+ meters
  • Clear skies
Temperatures Readings
Current 34°C / 93°F
Dewpoint 25°C / 77°F
Humidity 59%
Altimeter 29.5" Hg
Pressure 999 hPa
Elevation 2
METAR HCMF 251300Z 33005KT CAVOK 34/25 Q0999
Observed Flight Rules
May-25 @ 13:00 UTC
(15 hours ago)
VFR
Wind Visibility
330° at 5 knots 10,000+ meters
Clouds
  • Clear skies
Temperature Dewpoint
34°C / 93°F 25°C / 77°F
Humidity Altimeter Pressure
59% 29.5" Hg 999 hPa